TAF Text Data
IDs:
Format:
Raw Decoded Include METAR

Data at: 2046 UTC 01 Oct 2022

VVPQ 011830Z 00000KT 9999 SCT015 25/24 Q1008 NOSIG

TAF VVPQ 011700Z 0118/0218 25008KT 9999 SCT015 SCT040
  TEMPO 0123/0203 3000 SHRA SCT015 FEW017CB
  TEMPO 0205/0207 5000 TSRA SCT015 SCT017CB BKN040